createdAt,value
2023-04-24T00:01:49.020Z,11.39
2023-04-24T00:04:18.311Z,11.43
2023-04-24T00:06:50.591Z,11.32
2023-04-24T00:09:18.649Z,11.36
2023-04-24T00:11:46.576Z,11.26
2023-04-24T00:14:15.878Z,11.17
2023-04-24T00:16:43.868Z,11.21
2023-04-24T00:19:12.251Z,11.16
2023-04-24T00:21:40.202Z,11.11
2023-04-24T00:24:10.043Z,11.06
2023-04-24T00:26:37.924Z,11.03
2023-04-24T00:29:05.912Z,10.91
2023-04-24T00:31:35.970Z,10.76
2023-04-24T00:34:04.337Z,10.68
2023-04-24T00:36:33.545Z,10.62
2023-04-24T00:39:01.457Z,10.63
2023-04-24T00:41:29.424Z,10.60
2023-04-24T00:43:57.403Z,10.59
2023-04-24T00:46:25.438Z,10.55
2023-04-24T00:48:55.127Z,10.60
2023-04-24T00:51:23.147Z,10.75
2023-04-24T00:53:52.091Z,10.77
2023-04-24T00:56:20.942Z,10.63
2023-04-24T00:58:49.769Z,10.78
2023-04-24T01:01:18.058Z,10.81
2023-04-24T01:03:46.716Z,10.73
2023-04-24T01:06:16.379Z,10.72
2023-04-24T01:08:45.306Z,10.73
2023-04-24T01:11:13.661Z,10.73
2023-04-24T01:13:42.192Z,10.90
2023-04-24T01:16:10.380Z,10.83
2023-04-24T01:18:39.290Z,10.87
2023-04-24T01:21:08.806Z,10.84
2023-04-24T01:23:38.168Z,10.89
2023-04-24T01:26:06.203Z,10.83
2023-04-24T01:28:34.246Z,10.70
2023-04-24T01:31:02.174Z,10.56
2023-04-24T01:33:30.237Z,10.53
2023-04-24T01:35:58.788Z,10.46
2023-04-24T01:38:26.853Z,10.26
2023-04-24T01:40:56.201Z,10.36
2023-04-24T01:43:24.148Z,10.14
2023-04-24T01:45:52.067Z,10.14
2023-04-24T01:48:20.269Z,10.09
2023-04-24T01:50:48.854Z,9.95
2023-04-24T01:53:16.829Z,9.94
2023-04-24T01:55:44.891Z,9.89
2023-04-24T01:58:14.179Z,9.87
2023-04-24T02:00:42.170Z,9.83
2023-04-24T02:03:10.321Z,9.70
2023-04-24T02:05:38.386Z,9.64
2023-04-24T02:08:06.323Z,9.69
2023-04-24T02:10:34.171Z,9.67
2023-04-24T02:13:02.069Z,9.63
2023-04-24T02:15:31.379Z,9.63
2023-04-24T02:17:59.375Z,9.67
2023-04-24T02:20:27.630Z,9.64
2023-04-24T02:22:57.793Z,9.55
2023-04-24T02:25:26.074Z,9.52
2023-04-24T02:27:55.091Z,9.54
2023-04-24T02:30:23.044Z,9.46
2023-04-24T02:32:52.611Z,9.54
2023-04-24T02:35:21.836Z,9.40
2023-04-24T02:37:49.872Z,9.44
2023-04-24T02:40:17.824Z,9.44
2023-04-24T02:42:45.780Z,9.24
2023-04-24T02:45:13.638Z,9.31
2023-04-24T02:47:41.668Z,9.29
2023-04-24T02:50:11.578Z,9.25
2023-04-24T02:52:39.613Z,9.26
2023-04-24T02:55:09.025Z,9.23
2023-04-24T02:57:36.955Z,9.21
2023-04-24T03:00:07.891Z,9.10
2023-04-24T03:02:35.900Z,9.16
2023-04-24T03:05:05.664Z,9.17
2023-04-24T03:07:34.925Z,9.16
2023-04-24T03:10:02.770Z,9.16
2023-04-24T03:12:30.722Z,9.09
2023-04-24T03:14:58.625Z,9.22
2023-04-24T03:17:26.712Z,9.08
2023-04-24T03:19:54.595Z,9.15
2023-04-24T03:22:22.558Z,9.13
2023-04-24T03:24:51.865Z,9.00
2023-04-24T03:27:20.108Z,8.88
2023-04-24T03:29:48.025Z,9.06
2023-04-24T03:32:16.036Z,9.09
2023-04-24T03:34:43.937Z,9.18
2023-04-24T03:37:11.987Z,9.22
2023-04-24T03:39:40.036Z,9.30
2023-04-24T03:42:09.526Z,9.41
2023-04-24T03:44:37.793Z,9.56
2023-04-24T03:47:06.129Z,9.59
2023-04-24T03:49:34.018Z,9.55
2023-04-24T03:52:02.034Z,9.64
2023-04-24T03:54:29.909Z,9.67
2023-04-24T03:56:58.055Z,9.72
2023-04-24T03:59:27.412Z,9.77
2023-04-24T04:01:55.538Z,9.69
2023-04-24T04:04:23.912Z,9.68
2023-04-24T04:06:52.141Z,9.69
2023-04-24T04:09:20.139Z,9.74
2023-04-24T04:11:48.068Z,9.82
2023-04-24T04:14:15.957Z,9.78
2023-04-24T04:16:45.621Z,9.88
2023-04-24T04:19:13.628Z,9.95
2023-04-24T04:21:41.614Z,9.91
2023-04-24T04:24:10.775Z,10.01
2023-04-24T04:26:38.814Z,10.12
2023-04-24T04:29:07.750Z,10.14
2023-04-24T04:31:35.697Z,10.10
2023-04-24T04:34:05.003Z,10.15
2023-04-24T04:36:32.851Z,10.22
2023-04-24T04:39:01.122Z,10.28
2023-04-24T04:41:29.054Z,10.31
2023-04-24T04:43:59.567Z,10.26
2023-04-24T04:46:28.157Z,10.23
2023-04-24T04:48:57.723Z,10.20
2023-04-24T04:51:27.017Z,10.19
2023-04-24T04:53:54.911Z,10.23
2023-04-24T04:56:23.003Z,10.15
2023-04-24T04:58:50.904Z,10.24
2023-04-24T05:01:18.832Z,10.25
2023-04-24T05:03:46.964Z,10.30
2023-04-24T05:06:15.128Z,10.39
2023-04-24T05:08:44.567Z,10.36
2023-04-24T05:11:13.582Z,10.40
2023-04-24T05:13:41.570Z,10.33
2023-04-24T05:16:09.749Z,10.44
2023-04-24T05:18:37.781Z,10.38
2023-04-24T05:21:05.772Z,10.50
2023-04-24T05:23:33.809Z,10.25
2023-04-24T05:26:04.577Z,10.45
2023-04-24T05:28:34.298Z,10.30
2023-04-24T05:31:02.244Z,10.35
2023-04-24T05:33:30.247Z,10.56
2023-04-24T05:35:58.711Z,10.60
2023-04-24T05:38:26.815Z,10.54
2023-04-24T05:40:54.808Z,10.69
2023-04-24T05:43:24.313Z,10.69
2023-04-24T05:45:52.319Z,10.75
2023-04-24T05:48:20.394Z,10.84
2023-04-24T05:50:48.999Z,10.71
2023-04-24T05:53:17.651Z,10.71
2023-04-24T05:55:45.783Z,10.81
2023-04-24T05:58:14.017Z,10.87
2023-04-24T06:00:44.638Z,10.71
2023-04-24T06:03:12.834Z,10.78
2023-04-24T06:05:40.888Z,10.87
2023-04-24T06:08:08.962Z,11.03
2023-04-24T06:10:37.081Z,11.02
2023-04-24T06:13:05.020Z,11.08
2023-04-24T06:15:33.004Z,11.15
2023-04-24T06:18:02.397Z,11.19
2023-04-24T06:20:30.483Z,11.26
2023-04-24T06:22:58.678Z,11.37
2023-04-24T06:25:28.366Z,11.46
2023-04-24T06:27:56.370Z,11.56
2023-04-24T06:30:24.407Z,11.60
2023-04-24T06:32:53.201Z,11.71
2023-04-24T06:35:23.087Z,11.73
2023-04-24T06:37:51.326Z,11.86
2023-04-24T06:40:19.799Z,12.07
2023-04-24T06:42:47.884Z,12.21
2023-04-24T06:45:15.868Z,12.23
2023-04-24T06:47:44.309Z,12.27
2023-04-24T06:50:13.014Z,12.43
2023-04-24T06:52:43.087Z,12.50
2023-04-24T06:55:12.174Z,12.62
2023-04-24T06:57:40.106Z,12.63
2023-04-24T07:00:10.414Z,12.72
2023-04-24T07:02:38.757Z,12.75
2023-04-24T07:05:07.973Z,12.79
2023-04-24T07:07:38.828Z,12.67
2023-04-24T07:10:09.736Z,12.81
2023-04-24T07:12:38.559Z,12.82
2023-04-24T07:15:08.941Z,12.66
2023-04-24T07:17:37.099Z,12.87
2023-04-24T07:20:06.629Z,13.04
2023-04-24T07:22:34.546Z,13.12
2023-04-24T07:25:02.740Z,13.31
2023-04-24T07:27:32.050Z,13.35
2023-04-24T07:29:59.907Z,13.45
2023-04-24T07:32:27.797Z,13.57
2023-04-24T07:34:56.295Z,13.67
2023-04-24T07:37:24.996Z,13.83
2023-04-24T07:39:52.966Z,13.93
2023-04-24T07:42:20.928Z,13.96
2023-04-24T07:44:50.207Z,14.13
2023-04-24T07:47:18.241Z,14.27
2023-04-24T07:49:46.272Z,14.48
2023-04-24T07:52:14.216Z,14.59
2023-04-24T07:54:44.735Z,14.69
2023-04-24T07:57:12.830Z,14.73
2023-04-24T07:59:41.094Z,14.82
2023-04-24T08:02:10.818Z,14.85
2023-04-24T08:04:38.905Z,14.81
2023-04-24T08:07:06.916Z,14.98
2023-04-24T08:09:34.835Z,14.99
2023-04-24T08:12:03.646Z,15.07
2023-04-24T08:14:31.825Z,15.24
2023-04-24T08:17:01.210Z,15.31
2023-04-24T08:19:30.515Z,15.40
2023-04-24T08:21:58.391Z,15.62
2023-04-24T08:24:26.406Z,15.75
2023-04-24T08:26:55.446Z,15.75
2023-04-24T08:29:23.479Z,15.97
2023-04-24T08:31:51.627Z,16.17
2023-04-24T08:34:19.572Z,16.43
2023-04-24T08:36:49.267Z,16.56
2023-04-24T08:39:18.105Z,16.69
2023-04-24T08:41:46.686Z,16.66
2023-04-24T08:44:16.770Z,16.65
2023-04-24T08:46:46.349Z,16.62
2023-04-24T08:49:17.289Z,16.73
2023-04-24T08:51:45.834Z,16.63
2023-04-24T08:54:16.728Z,16.88
2023-04-24T08:56:46.589Z,16.99
2023-04-24T08:59:15.291Z,17.07
2023-04-24T09:01:44.073Z,17.31
2023-04-24T09:04:13.988Z,17.38
2023-04-24T09:06:42.718Z,17.62
2023-04-24T09:09:12.843Z,17.78
2023-04-24T09:11:43.685Z,17.85
2023-04-24T09:14:12.335Z,18.21
2023-04-24T09:16:40.330Z,18.44
2023-04-24T09:19:08.320Z,18.48
2023-04-24T09:21:37.190Z,18.54
2023-04-24T09:24:08.211Z,18.48
2023-04-24T09:26:38.229Z,18.56
2023-04-24T09:29:07.537Z,18.65
2023-04-24T09:31:35.861Z,18.75
2023-04-24T09:34:08.125Z,18.96
2023-04-24T09:36:39.252Z,19.10
2023-04-24T09:39:11.819Z,19.23
2023-04-24T09:41:47.074Z,19.07
2023-04-24T09:44:17.942Z,19.29
2023-04-24T09:46:47.667Z,19.35
2023-04-24T09:49:17.322Z,19.33
2023-04-24T09:51:45.570Z,19.38
2023-04-24T09:54:17.917Z,19.53
2023-04-24T09:56:47.455Z,19.61
2023-04-24T09:59:18.744Z,19.40
2023-04-24T10:01:47.399Z,19.62
2023-04-24T10:04:20.558Z,19.62
2023-04-24T10:06:49.882Z,19.73
2023-04-24T10:09:18.564Z,19.72
2023-04-24T10:11:48.643Z,19.60
2023-04-24T10:14:19.219Z,19.72
2023-04-24T10:16:48.162Z,20.05
2023-04-24T10:19:17.060Z,20.32
2023-04-24T10:21:47.711Z,20.53
2023-04-24T10:24:16.268Z,20.54
2023-04-24T10:26:44.884Z,20.83
2023-04-24T10:29:13.862Z,20.83
2023-04-24T10:31:46.632Z,21.34
2023-04-24T10:34:16.737Z,21.83
2023-04-24T10:36:48.425Z,22.32
2023-04-24T10:39:18.853Z,23.05
2023-04-24T10:41:47.463Z,23.00
2023-04-24T10:44:17.136Z,23.11
2023-04-24T10:46:48.727Z,22.73
2023-04-24T10:49:16.759Z,22.54
2023-04-24T10:51:50.113Z,22.95
2023-04-24T10:54:25.424Z,23.54
2023-04-24T10:56:54.092Z,23.63
2023-04-24T10:59:29.467Z,23.48
2023-04-24T11:01:58.913Z,23.39
2023-04-24T11:04:36.410Z,22.85
2023-04-24T11:07:05.839Z,22.80
2023-04-24T11:09:37.405Z,22.05
2023-04-24T11:12:08.052Z,21.42
2023-04-24T11:15:03.754Z,20.87
2023-04-24T11:17:35.284Z,20.63
2023-04-24T11:20:15.393Z,20.31
2023-04-24T11:22:56.503Z,19.88
2023-04-24T11:25:26.355Z,19.25
2023-04-24T11:28:05.643Z,18.63
2023-04-24T11:30:34.728Z,17.12
2023-04-24T11:33:06.543Z,16.66
2023-04-24T11:35:41.209Z,16.74
2023-04-24T11:40:40.816Z,17.37
2023-04-24T11:43:10.912Z,17.20
2023-04-24T11:45:38.872Z,17.05
2023-04-24T11:48:08.319Z,17.08
2023-04-24T11:50:36.859Z,17.20
2023-04-24T11:53:06.568Z,17.64
2023-04-24T11:55:34.554Z,18.21
2023-04-24T11:58:02.727Z,18.94
2023-04-24T12:00:32.741Z,18.27
2023-04-24T12:03:10.536Z,18.72
2023-04-24T12:05:39.440Z,19.03
2023-04-24T12:08:07.748Z,19.00
2023-04-24T12:10:36.785Z,18.82
2023-04-24T12:13:05.132Z,18.71
2023-04-24T12:15:33.305Z,19.13
2023-04-24T12:18:01.878Z,19.47
2023-04-24T12:20:32.780Z,19.01
2023-04-24T12:23:03.026Z,19.01
2023-04-24T12:25:32.458Z,19.06
2023-04-24T12:28:12.772Z,19.20
2023-04-24T12:30:44.033Z,19.01
2023-04-24T12:33:12.392Z,19.30
2023-04-24T12:35:43.084Z,19.87
2023-04-24T12:38:13.849Z,19.91
2023-04-24T12:40:43.521Z,20.31
2023-04-24T12:43:18.125Z,20.35
2023-04-24T12:45:46.495Z,20.14
2023-04-24T12:48:15.741Z,19.19
2023-04-24T12:50:47.547Z,19.23
2023-04-24T12:53:16.337Z,19.30
2023-04-24T12:55:45.596Z,19.58
2023-04-24T12:58:13.920Z,19.87
2023-04-24T13:00:44.481Z,20.14
2023-04-24T13:03:12.874Z,20.25
2023-04-24T13:05:41.257Z,20.34
2023-04-24T13:08:10.695Z,20.45
2023-04-24T13:10:39.004Z,20.66
2023-04-24T13:13:07.009Z,21.23
2023-04-24T13:15:35.457Z,21.88
2023-04-24T13:18:03.785Z,22.50
2023-04-24T13:20:32.217Z,22.83
2023-04-24T13:23:00.138Z,23.02
2023-04-24T13:25:30.769Z,23.20
2023-04-24T13:27:58.632Z,23.24
2023-04-24T13:30:26.601Z,23.64
2023-04-24T13:32:54.557Z,23.99
2023-04-24T13:35:22.559Z,24.55
2023-04-24T13:37:52.872Z,24.88
2023-04-24T13:40:23.891Z,25.50
2023-04-24T13:42:55.495Z,25.74
2023-04-24T13:45:25.175Z,26.31
2023-04-24T13:47:55.330Z,26.50
2023-04-24T13:50:23.577Z,26.53
2023-04-24T13:52:51.677Z,26.65
2023-04-24T13:55:19.813Z,26.29
2023-04-24T13:57:47.912Z,25.28
2023-04-24T14:00:18.418Z,25.45
2023-04-24T14:02:46.470Z,25.55
2023-04-24T14:05:15.203Z,26.00
2023-04-24T14:07:43.602Z,26.21
2023-04-24T14:10:12.260Z,26.34
2023-04-24T14:12:46.403Z,25.67
2023-04-24T14:15:14.700Z,25.73
2023-04-24T14:17:44.275Z,26.38
2023-04-24T14:20:14.568Z,26.64
2023-04-24T14:22:43.993Z,26.86
2023-04-24T14:25:12.424Z,26.34
2023-04-24T14:27:41.178Z,25.64
2023-04-24T14:30:10.414Z,25.12
2023-04-24T14:32:41.049Z,24.06
2023-04-24T14:35:11.108Z,23.58
2023-04-24T14:37:39.284Z,23.05
2023-04-24T14:40:26.690Z,21.99
2023-04-24T14:42:58.237Z,21.37
2023-04-24T14:45:26.300Z,21.02
2023-04-24T14:47:54.574Z,20.75
2023-04-24T14:50:24.895Z,20.32
2023-04-24T14:52:53.157Z,19.90
2023-04-24T14:55:22.122Z,19.87
2023-04-24T14:57:50.128Z,19.63
2023-04-24T15:00:19.189Z,19.64
2023-04-24T15:02:47.428Z,19.16
2023-04-24T15:05:16.014Z,18.91
2023-04-24T15:07:46.539Z,18.61
2023-04-24T15:10:14.458Z,18.48
2023-04-24T15:12:42.455Z,18.28
2023-04-24T15:15:11.473Z,18.02
2023-04-24T15:17:39.777Z,17.87
2023-04-24T15:20:08.928Z,17.92
2023-04-24T15:22:37.484Z,18.04
2023-04-24T15:25:08.131Z,18.00
2023-04-24T15:27:43.649Z,17.71
2023-04-24T15:30:12.763Z,17.84
2023-04-24T15:32:49.948Z,17.74
2023-04-24T15:35:18.639Z,17.67
2023-04-24T15:37:47.014Z,17.62
2023-04-24T15:40:17.662Z,17.66
2023-04-24T15:42:46.423Z,17.62
2023-04-24T15:45:14.758Z,17.72
2023-04-24T15:47:42.813Z,17.63
2023-04-24T15:50:14.340Z,17.60
2023-04-24T15:52:43.088Z,17.56
2023-04-24T15:55:11.866Z,17.63
2023-04-24T15:57:41.330Z,17.62
2023-04-24T16:00:11.355Z,17.77
2023-04-24T16:02:41.236Z,17.72
2023-04-24T16:05:09.906Z,17.57
2023-04-24T16:07:39.816Z,17.37
2023-04-24T16:10:08.551Z,17.32
2023-04-24T16:12:36.724Z,16.98
2023-04-24T16:15:09.522Z,16.87
2023-04-24T16:17:38.327Z,16.55
2023-04-24T16:20:10.182Z,16.06
2023-04-24T16:22:40.075Z,15.79
2023-04-24T16:25:09.355Z,15.57
2023-04-24T16:27:38.823Z,15.16
2023-04-24T16:30:10.632Z,15.09
2023-04-24T16:32:39.286Z,15.08
2023-04-24T16:35:08.420Z,14.97
2023-04-24T16:37:37.142Z,14.91
2023-04-24T16:40:10.820Z,14.90
2023-04-24T16:42:40.079Z,14.72
2023-04-24T16:45:11.658Z,14.59
2023-04-24T16:47:40.322Z,14.47
2023-04-24T16:50:10.050Z,14.69
2023-04-24T16:52:39.448Z,14.73
2023-04-24T16:55:10.286Z,14.77
2023-04-24T16:57:39.171Z,14.78
2023-04-24T17:00:11.659Z,14.73
2023-04-24T17:02:41.006Z,14.75
2023-04-24T17:05:10.280Z,14.67
2023-04-24T17:07:38.999Z,14.59
2023-04-24T17:10:09.468Z,14.57
2023-04-24T17:12:38.163Z,14.25
2023-04-24T17:15:08.008Z,14.12
2023-04-24T17:17:42.790Z,14.25
2023-04-24T17:20:22.080Z,14.27
2023-04-24T17:22:53.157Z,14.31
2023-04-24T17:25:22.282Z,14.30
2023-04-24T17:27:51.022Z,14.28
2023-04-24T17:30:19.640Z,14.26
2023-04-24T17:32:51.118Z,14.15
2023-04-24T17:35:23.110Z,14.11
2023-04-24T17:37:52.161Z,14.17
2023-04-24T17:40:20.947Z,14.22
2023-04-24T17:42:51.241Z,14.14
2023-04-24T17:45:19.281Z,14.14
2023-04-24T17:47:47.332Z,13.90
2023-04-24T17:50:16.833Z,13.96
2023-04-24T17:52:44.729Z,13.96
2023-04-24T17:55:12.837Z,13.96
2023-04-24T17:57:41.141Z,14.03
2023-04-24T18:00:13.288Z,13.92
2023-04-24T18:02:41.397Z,13.95
2023-04-24T18:05:09.540Z,13.80
2023-04-24T18:07:39.285Z,13.62
2023-04-24T18:10:08.380Z,13.41
2023-04-24T18:12:36.257Z,13.30
2023-04-24T18:15:14.361Z,12.69
2023-04-24T18:17:42.972Z,11.84
2023-04-24T18:20:12.006Z,11.35
2023-04-24T18:22:41.846Z,11.40
2023-04-24T18:25:14.035Z,11.30
2023-04-24T18:27:42.637Z,11.36
2023-04-24T18:30:14.719Z,11.30
2023-04-24T18:32:43.319Z,11.47
2023-04-24T18:35:11.737Z,11.55
2023-04-24T18:37:41.694Z,11.59
2023-04-24T18:40:11.362Z,11.55
2023-04-24T18:42:39.642Z,11.64
2023-04-24T18:45:08.795Z,11.51
2023-04-24T18:47:37.072Z,11.09
2023-04-24T18:50:05.462Z,11.45
2023-04-24T18:52:33.548Z,11.51
2023-04-24T18:55:03.667Z,11.46
2023-04-24T18:57:32.316Z,11.11
2023-04-24T19:00:01.223Z,11.24
2023-04-24T19:02:29.423Z,11.15
2023-04-24T19:04:57.402Z,11.35
2023-04-24T19:07:25.239Z,11.54
2023-04-24T19:09:53.214Z,11.63
2023-04-24T19:12:23.205Z,11.64
2023-04-24T19:14:51.748Z,11.68
2023-04-24T19:17:23.633Z,11.77
2023-04-24T19:19:52.434Z,11.85
2023-04-24T19:22:20.980Z,11.89
2023-04-24T19:24:49.097Z,12.01
2023-04-24T19:27:17.162Z,12.12
2023-04-24T19:29:46.632Z,12.10
2023-04-24T19:32:14.669Z,12.05
2023-04-24T19:34:42.696Z,12.04
2023-04-24T19:37:11.164Z,11.94
2023-04-24T19:39:39.146Z,11.81
2023-04-24T19:42:07.775Z,11.67
2023-04-24T19:44:35.893Z,11.63
2023-04-24T19:47:05.340Z,11.58
2023-04-24T19:49:33.193Z,11.56
2023-04-24T19:52:01.360Z,11.75
2023-04-24T19:54:29.808Z,11.81
2023-04-24T19:56:58.233Z,11.78
2023-04-24T19:59:26.175Z,11.61
2023-04-24T20:01:55.239Z,11.63
2023-04-24T20:04:25.835Z,11.30
2023-04-24T20:06:54.047Z,11.24
2023-04-24T20:09:23.119Z,11.56
2023-04-24T20:11:52.522Z,11.44
2023-04-24T20:14:20.672Z,11.51
2023-04-24T20:16:49.593Z,11.39
2023-04-24T20:19:17.994Z,11.31
2023-04-24T20:21:47.739Z,11.48
2023-04-24T20:24:16.730Z,11.47
2023-04-24T20:26:45.257Z,11.55
2023-04-24T20:29:13.985Z,11.37
2023-04-24T20:31:42.228Z,11.40
2023-04-24T20:34:10.794Z,11.53
2023-04-24T20:36:39.220Z,11.28
2023-04-24T20:39:09.287Z,11.32
2023-04-24T20:41:38.704Z,11.26
2023-04-24T20:44:07.067Z,11.21
2023-04-24T20:46:35.236Z,11.09
2023-04-24T20:49:03.628Z,11.16
2023-04-24T20:51:32.441Z,11.22
2023-04-24T20:54:00.330Z,11.24
2023-04-24T20:56:29.780Z,11.31
2023-04-24T20:58:57.918Z,11.31
2023-04-24T21:01:26.110Z,11.22
2023-04-24T21:03:58.417Z,11.10
2023-04-24T21:06:26.500Z,10.93
2023-04-24T21:08:54.594Z,10.83
2023-04-24T21:11:22.589Z,10.85
2023-04-24T21:13:52.180Z,10.91
2023-04-24T21:16:20.942Z,11.02
2023-04-24T21:18:48.935Z,11.23
2023-04-24T21:21:16.941Z,11.27
2023-04-24T21:23:45.065Z,11.21
2023-04-24T21:26:16.022Z,11.17
2023-04-24T21:28:44.819Z,11.20
2023-04-24T21:31:14.976Z,10.99
2023-04-24T21:33:42.996Z,11.13
2023-04-24T21:36:11.300Z,11.11
2023-04-24T21:38:40.359Z,11.11
2023-04-24T21:41:08.267Z,10.93
2023-04-24T21:43:44.036Z,10.94
2023-04-24T21:46:14.174Z,10.92
2023-04-24T21:48:42.099Z,10.93
2023-04-24T21:51:10.277Z,10.93
2023-04-24T21:53:38.308Z,10.90
2023-04-24T21:56:06.858Z,10.83
2023-04-24T21:58:35.784Z,10.82
2023-04-24T22:01:03.765Z,10.82
2023-04-24T22:03:33.394Z,10.86
2023-04-24T22:06:01.435Z,10.95
2023-04-24T22:08:29.344Z,10.89
2023-04-24T22:10:57.917Z,10.86
2023-04-24T22:13:25.896Z,10.92
2023-04-24T22:15:54.007Z,10.99
2023-04-24T22:18:24.599Z,10.94
2023-04-24T22:20:58.586Z,10.91
2023-04-24T22:23:26.648Z,10.90
2023-04-24T22:25:54.586Z,10.90
2023-04-24T22:28:22.500Z,10.93
2023-04-24T22:30:50.428Z,10.96
2023-04-24T22:33:18.521Z,10.79
2023-04-24T22:35:46.477Z,10.95
2023-04-24T22:38:17.258Z,10.91
2023-04-24T22:40:45.178Z,10.72
2023-04-24T22:43:13.465Z,10.63
2023-04-24T22:45:41.558Z,10.57
2023-04-24T22:48:09.525Z,10.67
2023-04-24T22:50:37.576Z,10.73
2023-04-24T22:53:05.485Z,10.69
2023-04-24T22:55:34.856Z,10.58
2023-04-24T22:58:02.954Z,10.74
2023-04-24T23:00:30.872Z,10.85
2023-04-24T23:02:58.981Z,10.72
2023-04-24T23:05:28.065Z,10.50
2023-04-24T23:07:56.046Z,10.38
2023-04-24T23:10:26.636Z,10.28
2023-04-24T23:12:56.083Z,10.20
2023-04-24T23:15:24.057Z,10.41
2023-04-24T23:17:52.695Z,10.51
2023-04-24T23:20:23.576Z,10.54
2023-04-24T23:22:51.545Z,10.61
2023-04-24T23:25:20.713Z,10.53
2023-04-24T23:27:48.667Z,10.49
2023-04-24T23:30:17.916Z,10.50
2023-04-24T23:32:45.853Z,10.50
2023-04-24T23:35:13.960Z,10.33
2023-04-24T23:37:41.910Z,10.45
2023-04-24T23:40:11.500Z,10.42
2023-04-24T23:42:39.559Z,10.40
2023-04-24T23:45:08.510Z,10.46
2023-04-24T23:47:37.804Z,10.60
2023-04-24T23:50:06.875Z,10.59
2023-04-24T23:52:35.394Z,10.71
2023-04-24T23:55:04.728Z,10.48
2023-04-24T23:57:32.682Z,10.36
